Time,TemperatureF,DewpointF,PressureIn,WindDirection,WindDirectionDegrees,WindSpeedMPH,WindSpeedGustMPH,Humidity,HourlyPrecipIn,Conditions,Clouds,dailyrainin,SoftwareType,DateUTC
2013-02-20 00:01:00,52.9,34.2,29.68,SSW,206,5.0,5.0,49,0.00,,,0.00,Wunderground v.1.15,2013-02-20 07:01:00,
2013-02-20 00:06:00,52.8,34.7,29.67,SW,229,4.0,8.0,50,0.00,,,0.00,Wunderground v.1.15,2013-02-20 07:06:00,
2013-02-20 00:11:00,52.7,34.6,29.67,SE,124,2.0,6.0,50,0.00,,,0.00,Wunderground v.1.15,2013-02-20 07:11:00,
2013-02-20 00:16:00,52.6,35.0,29.67,SSW,197,4.0,8.0,51,0.00,,,0.00,Wunderground v.1.15,2013-02-20 07:16:00,
2013-02-20 00:21:00,52.5,34.9,29.67,SSW,197,8.0,8.0,51,0.00,,,0.00,Wunderground v.1.15,2013-02-20 07:21:00,
2013-02-20 00:26:00,52.4,34.8,29.66,SE,139,3.0,9.0,51,0.00,,,0.00,Wunderground v.1.15,2013-02-20 07:26:00,
2013-02-20 00:31:00,52.4,34.8,29.66,East,96,3.0,6.0,51,0.00,,,0.00,Wunderground v.1.15,2013-02-20 07:31:00,
2013-02-20 00:36:00,52.4,34.8,29.66,SE,138,1.0,6.0,51,0.00,,,0.00,Wunderground v.1.15,2013-02-20 07:36:00,
2013-02-20 00:41:00,52.4,34.3,29.66,East,99,2.0,6.0,50,0.00,,,0.00,Wunderground v.1.15,2013-02-20 07:41:00,
2013-02-20 00:46:00,52.4,34.3,29.66,SW,219,2.0,6.0,50,0.00,,,0.00,Wunderground v.1.15,2013-02-20 07:46:00,
2013-02-20 00:51:00,52.4,34.3,29.67,South,187,0.0,2.0,50,0.00,,,0.00,Wunderground v.1.15,2013-02-20 07:51:00,
2013-02-20 00:56:00,52.3,34.7,29.68,SE,141,2.0,5.0,51,0.00,,,0.00,Wunderground v.1.15,2013-02-20 07:56:00,
2013-02-20 01:01:00,52.2,34.6,29.68,ESE,121,1.0,1.0,51,0.00,,,0.00,Wunderground v.1.15,2013-02-20 08:01:00,
2013-02-20 01:06:00,52.1,35.0,29.68,West,278,1.0,4.0,52,0.00,,,0.00,Wunderground v.1.15,2013-02-20 08:06:00,
2013-02-20 01:11:00,52.0,34.9,29.67,SW,231,0.0,6.0,52,0.00,,,0.00,Wunderground v.1.15,2013-02-20 08:11:00,
2013-02-20 01:16:00,52.0,34.9,29.67,South,180,3.0,6.0,52,0.00,,,0.00,Wunderground v.1.15,2013-02-20 08:16:00,
2013-02-20 01:21:00,51.9,35.3,29.67,SE,129,1.0,3.0,53,0.00,,,0.00,Wunderground v.1.15,2013-02-20 08:21:00,
2013-02-20 01:26:00,51.8,35.2,29.67,SSE,160,3.0,3.0,53,0.00,,,0.00,Wunderground v.1.15,2013-02-20 08:26:00,
2013-02-20 01:31:00,51.6,35.0,29.68,SSW,192,1.0,2.0,53,0.00,,,0.00,Wunderground v.1.15,2013-02-20 08:31:00,
2013-02-20 01:36:00,51.5,34.9,29.67,NW,313,1.0,5.0,53,0.00,,,0.00,Wunderground v.1.15,2013-02-20 08:36:00,
2013-02-20 01:41:00,51.3,35.2,29.67,SSE,166,1.0,3.0,54,0.00,,,0.00,Wunderground v.1.15,2013-02-20 08:41:00,
2013-02-20 01:47:00,51.2,35.1,29.67,West,271,3.0,4.0,54,0.00,,,0.00,Wunderground v.1.15,2013-02-20 08:47:00,
2013-02-20 01:52:00,51.1,35.0,29.67,SE,141,8.0,11.0,54,0.00,,,0.00,Wunderground v.1.15,2013-02-20 08:52:00,
2013-02-20 01:57:00,51.0,35.4,29.67,SW,224,0.0,11.0,55,0.00,,,0.00,Wunderground v.1.15,2013-02-20 08:57:00,
2013-02-20 02:02:00,50.8,35.2,29.67,ENE,75,2.0,5.0,55,0.00,,,0.00,Wunderground v.1.15,2013-02-20 09:02:00,
2013-02-20 02:07:00,50.7,35.1,29.67,SE,138,1.0,5.0,55,0.00,,,0.00,Wunderground v.1.15,2013-02-20 09:07:00,
2013-02-20 02:12:00,50.5,35.4,29.67,West,278,1.0,4.0,56,0.00,,,0.00,Wunderground v.1.15,2013-02-20 09:12:00,
2013-02-20 02:18:00,50.4,35.7,29.67,SSE,148,2.0,4.0,57,0.00,,,0.00,Wunderground v.1.15,2013-02-20 09:18:00,
2013-02-20 02:23:00,50.3,35.2,29.67,WSW,256,2.0,4.0,56,0.00,,,0.00,Wunderground v.1.15,2013-02-20 09:23:00,
2013-02-20 02:28:00,50.5,35.4,29.67,WSW,252,1.0,4.0,56,0.00,,,0.00,Wunderground v.1.15,2013-02-20 09:28:00,
2013-02-20 02:33:00,50.8,35.2,29.67,South,190,2.0,4.0,55,0.00,,,0.00,Wunderground v.1.15,2013-02-20 09:33:00,
2013-02-20 02:39:00,50.8,35.2,29.67,WSW,238,2.0,4.0,55,0.00,,,0.00,Wunderground v.1.15,2013-02-20 09:39:00,
2013-02-20 02:44:00,50.9,35.3,29.67,SW,214,3.0,5.0,55,0.00,,,0.00,Wunderground v.1.15,2013-02-20 09:44:00,
2013-02-20 02:49:00,51.0,34.9,29.67,West,269,3.0,6.0,54,0.00,,,0.00,Wunderground v.1.15,2013-02-20 09:49:00,
2013-02-20 02:54:00,51.0,34.5,29.66,SSE,153,4.0,5.0,53,0.00,,,0.00,Wunderground v.1.15,2013-02-20 09:54:00,
2013-02-20 03:00:00,51.1,34.5,29.66,SSW,197,6.0,6.0,53,0.00,,,0.00,Wunderground v.1.15,2013-02-20 10:00:00,
2013-02-20 03:05:00,51.0,34.5,29.66,ESE,103,1.0,7.0,53,0.00,,,0.00,Wunderground v.1.15,2013-02-20 10:05:00,
2013-02-20 03:10:00,51.0,34.5,29.66,SSE,158,2.0,3.0,53,0.00,,,0.00,Wunderground v.1.15,2013-02-20 10:10:00,
2013-02-20 03:15:00,50.8,35.7,29.66,West,274,4.0,7.0,56,0.00,,,0.00,Wunderground v.1.15,2013-02-20 10:15:00,
2013-02-20 03:20:00,50.6,35.9,29.66,SSW,212,6.0,6.0,57,0.00,,,0.00,Wunderground v.1.15,2013-02-20 10:20:00,
2013-02-20 03:25:00,50.4,35.3,29.65,SSE,165,4.0,8.0,56,0.00,,,0.00,Wunderground v.1.15,2013-02-20 10:25:00,
2013-02-20 03:30:00,50.3,35.6,29.65,SSW,210,0.0,2.0,57,0.00,,,0.00,Wunderground v.1.15,2013-02-20 10:30:00,
2013-02-20 03:35:00,50.2,35.5,29.64,SW,224,0.0,5.0,57,0.00,,,0.00,Wunderground v.1.15,2013-02-20 10:35:00,
2013-02-20 03:40:00,50.1,35.4,29.64,SW,218,3.0,3.0,57,0.00,,,0.00,Wunderground v.1.15,2013-02-20 10:40:00,
2013-02-20 03:45:00,50.1,35.4,29.64,WSW,246,0.0,6.0,57,0.00,,,0.00,Wunderground v.1.15,2013-02-20 10:45:00,
2013-02-20 03:50:00,50.2,35.1,29.64,SW,218,0.0,2.0,56,0.00,,,0.00,Wunderground v.1.15,2013-02-20 10:50:00,
2013-02-20 03:55:00,50.3,35.2,29.64,SE,145,1.0,6.0,56,0.00,,,0.00,Wunderground v.1.15,2013-02-20 10:55:00,
2013-02-20 04:00:00,50.3,35.2,29.63,SSW,199,0.0,2.0,56,0.00,,,0.00,Wunderground v.1.15,2013-02-20 11:00:00,
2013-02-20 04:05:00,50.2,35.1,29.63,ESE,108,0.0,4.0,56,0.00,,,0.00,Wunderground v.1.15,2013-02-20 11:05:00,
2013-02-20 04:10:00,50.2,35.1,29.64,WSW,248,0.0,2.0,56,0.00,,,0.00,Wunderground v.1.15,2013-02-20 11:10:00,
2013-02-20 04:15:00,50.2,35.1,29.63,SW,236,4.0,5.0,56,0.00,,,0.00,Wunderground v.1.15,2013-02-20 11:15:00,
2013-02-20 04:20:00,50.2,35.1,29.63,SE,125,0.0,2.0,56,0.00,,,0.00,Wunderground v.1.15,2013-02-20 11:20:00,
2013-02-20 04:25:00,50.1,35.0,29.63,WSW,238,0.0,5.0,56,0.00,,,0.00,Wunderground v.1.15,2013-02-20 11:25:00,
2013-02-20 04:30:00,50.1,35.0,29.63,ESE,107,1.0,4.0,56,0.00,,,0.00,Wunderground v.1.15,2013-02-20 11:30:00,
2013-02-20 04:35:00,50.2,35.1,29.63,SSE,155,2.0,4.0,56,0.00,,,0.00,Wunderground v.1.15,2013-02-20 11:35:00,
2013-02-20 04:40:00,50.1,35.4,29.64,West,266,1.0,1.0,57,0.00,,,0.00,Wunderground v.1.15,2013-02-20 11:40:00,
2013-02-20 04:45:00,50.0,36.2,29.64,WSW,239,2.0,4.0,59,0.00,,,0.00,Wunderground v.1.15,2013-02-20 11:45:00,
2013-02-20 04:50:00,49.3,38.0,29.65,SW,236,11.0,13.0,65,0.00,,,0.00,Wunderground v.1.15,2013-02-20 11:50:00,
2013-02-20 04:55:00,48.3,39.3,29.65,WSW,246,4.0,16.0,71,0.00,,,0.01,Wunderground v.1.15,2013-02-20 11:55:00,
2013-02-20 05:00:00,47.4,40.2,29.65,WSW,238,7.0,17.0,76,0.10,,,0.02,Wunderground v.1.15,2013-02-20 12:00:00,
2013-02-20 05:05:00,46.6,40.4,29.65,ENE,66,7.0,19.0,79,0.14,,,0.03,Wunderground v.1.15,2013-02-20 12:05:00,
2013-02-20 05:10:00,46.1,40.3,29.65,SSE,163,5.0,14.0,80,0.10,,,0.04,Wunderground v.1.15,2013-02-20 12:10:00,
2013-02-20 05:15:00,45.9,40.4,29.66,WSW,238,9.0,14.0,81,0.10,,,0.04,Wunderground v.1.15,2013-02-20 12:15:00,
2013-02-20 05:20:00,45.7,40.5,29.65,West,274,3.0,6.0,82,0.09,,,0.05,Wunderground v.1.15,2013-02-20 12:20:00,
2013-02-20 05:25:00,45.4,40.5,29.65,SW,226,2.0,10.0,83,0.10,,,0.06,Wunderground v.1.15,2013-02-20 12:25:00,
2013-02-20 05:30:00,45.4,40.8,29.65,SE,145,4.0,7.0,84,0.07,,,0.06,Wunderground v.1.15,2013-02-20 12:30:00,
2013-02-20 05:35:00,45.4,40.8,29.65,East,86,7.0,12.0,84,0.05,,,0.06,Wunderground v.1.15,2013-02-20 12:35:00,
2013-02-20 05:40:00,45.4,41.2,29.65,SE,124,3.0,6.0,85,0.00,,,0.06,Wunderground v.1.15,2013-02-20 12:40:00,
2013-02-20 05:45:00,45.6,41.0,29.65,West,276,3.0,8.0,84,0.00,,,0.07,Wunderground v.1.15,2013-02-20 12:45:00,
2013-02-20 05:50:00,45.7,41.1,29.65,WSW,255,3.0,4.0,84,0.00,,,0.07,Wunderground v.1.15,2013-02-20 12:50:00,
2013-02-20 05:55:00,45.6,41.4,29.66,SSE,153,6.0,9.0,85,0.00,,,0.07,Wunderground v.1.15,2013-02-20 12:55:00,
2013-02-20 06:00:00,45.7,41.4,29.66,SW,235,1.0,3.0,85,0.00,,,0.07,Wunderground v.1.15,2013-02-20 13:00:00,
2013-02-20 06:05:00,45.7,41.1,29.65,West,261,0.0,7.0,84,0.00,,,0.07,Wunderground v.1.15,2013-02-20 13:05:00,
2013-02-20 06:10:00,45.7,41.4,29.66,SSE,150,1.0,5.0,85,0.00,,,0.07,Wunderground v.1.15,2013-02-20 13:10:00,
2013-02-20 06:15:00,45.8,41.2,29.65,SSE,147,2.0,9.0,84,0.00,,,0.07,Wunderground v.1.15,2013-02-20 13:15:00,
2013-02-20 06:20:00,45.9,41.0,29.65,SSE,153,1.0,6.0,83,0.00,,,0.07,Wunderground v.1.15,2013-02-20 13:20:00,
2013-02-20 06:25:00,45.9,40.7,29.65,SSE,153,5.0,9.0,82,0.00,,,0.07,Wunderground v.1.15,2013-02-20 13:25:00,
2013-02-20 06:30:00,46.0,40.5,29.65,SSW,208,4.0,7.0,81,0.00,,,0.07,Wunderground v.1.15,2013-02-20 13:30:00,
2013-02-20 06:35:00,46.0,40.2,29.65,SSW,208,3.0,12.0,80,0.00,,,0.07,Wunderground v.1.15,2013-02-20 13:35:00,
2013-02-20 06:40:00,46.0,40.2,29.65,WSW,255,2.0,8.0,80,0.00,,,0.07,Wunderground v.1.15,2013-02-20 13:40:00,
2013-02-20 06:45:00,46.1,39.9,29.65,South,185,6.0,11.0,79,0.00,,,0.07,Wunderground v.1.15,2013-02-20 13:45:00,
2013-02-20 06:50:00,46.3,39.8,29.65,SW,236,4.0,11.0,78,0.00,,,0.07,Wunderground v.1.15,2013-02-20 13:50:00,
2013-02-20 06:55:00,46.3,40.1,29.65,SE,138,5.0,11.0,79,0.00,,,0.07,Wunderground v.1.15,2013-02-20 13:55:00,
2013-02-20 07:00:00,46.3,40.1,29.66,SE,136,6.0,8.0,79,0.00,,,0.07,Wunderground v.1.15,2013-02-20 14:00:00,
2013-02-20 07:05:00,46.4,39.9,29.66,SW,235,7.0,11.0,78,0.00,,,0.07,Wunderground v.1.15,2013-02-20 14:05:00,
2013-02-20 07:10:00,46.4,39.9,29.66,ESE,106,1.0,8.0,78,0.00,,,0.07,Wunderground v.1.15,2013-02-20 14:10:00,
2013-02-20 07:15:00,46.5,40.0,29.67,SSE,155,3.0,12.0,78,0.00,,,0.07,Wunderground v.1.15,2013-02-20 14:15:00,
2013-02-20 07:20:00,46.5,39.7,29.67,SSW,200,6.0,7.0,77,0.00,,,0.07,Wunderground v.1.15,2013-02-20 14:20:00,
2013-02-20 07:25:00,46.5,39.7,29.67,West,269,3.0,11.0,77,0.00,,,0.07,Wunderground v.1.15,2013-02-20 14:25:00,
2013-02-20 07:30:00,46.6,39.4,29.67,SSW,198,5.0,9.0,76,0.00,,,0.07,Wunderground v.1.15,2013-02-20 14:30:00,
2013-02-20 07:35:00,46.6,39.4,29.67,SSW,200,3.0,11.0,76,0.00,,,0.07,Wunderground v.1.15,2013-02-20 14:35:00,
2013-02-20 07:40:00,46.6,39.1,29.68,SW,221,6.0,9.0,75,0.00,,,0.07,Wunderground v.1.15,2013-02-20 14:40:00,
2013-02-20 07:45:00,46.6,39.1,29.68,SE,138,7.0,12.0,75,0.00,,,0.07,Wunderground v.1.15,2013-02-20 14:45:00,
2013-02-20 07:50:00,46.6,39.1,29.68,South,184,6.0,10.0,75,0.00,,,0.07,Wunderground v.1.15,2013-02-20 14:50:00,
2013-02-20 07:55:00,46.7,38.9,29.68,SSE,151,2.0,11.0,74,0.00,,,0.07,Wunderground v.1.15,2013-02-20 14:55:00,
2013-02-20 08:00:00,46.9,38.7,29.68,WSW,257,4.0,7.0,73,0.00,,,0.07,Wunderground v.1.15,2013-02-20 15:00:00,
2013-02-20 08:05:00,46.9,38.7,29.69,WNW,283,2.0,11.0,73,0.00,,,0.07,Wunderground v.1.15,2013-02-20 15:05:00,
2013-02-20 08:10:00,47.0,38.8,29.69,South,170,4.0,7.0,73,0.00,,,0.07,Wunderground v.1.15,2013-02-20 15:10:00,
2013-02-20 08:15:00,47.3,38.4,29.69,ESE,120,1.0,9.0,71,0.00,,,0.07,Wunderground v.1.15,2013-02-20 15:15:00,
2013-02-20 08:20:00,47.4,38.5,29.69,SSE,167,5.0,7.0,71,0.00,,,0.07,Wunderground v.1.15,2013-02-20 15:20:00,
2013-02-20 08:25:00,47.7,38.0,29.69,South,191,2.0,8.0,69,0.00,,,0.07,Wunderground v.1.15,2013-02-20 15:25:00,
2013-02-20 08:30:00,47.8,38.1,29.70,SSW,208,6.0,6.0,69,0.00,,,0.07,Wunderground v.1.15,2013-02-20 15:30:00,
2013-02-20 08:35:00,47.6,37.9,29.70,WSW,257,5.0,10.0,69,0.00,,,0.07,Wunderground v.1.15,2013-02-20 15:35:00,
2013-02-20 08:40:00,47.4,37.4,29.70,SE,140,3.0,7.0,68,0.00,,,0.07,Wunderground v.1.15,2013-02-20 15:40:00,
2013-02-20 08:45:00,47.4,37.4,29.70,South,172,1.0,8.0,68,0.00,,,0.07,Wunderground v.1.15,2013-02-20 15:45:00,
2013-02-20 08:50:00,47.5,37.1,29.70,WNW,287,0.0,4.0,67,0.00,,,0.07,Wunderground v.1.15,2013-02-20 15:50:00,
2013-02-20 08:55:00,48.0,37.2,29.71,West,274,0.0,6.0,66,0.00,,,0.07,Wunderground v.1.15,2013-02-20 15:55:00,
2013-02-20 09:00:00,48.9,36.9,29.71,SE,134,3.0,5.0,63,0.00,,,0.07,Wunderground v.1.15,2013-02-20 16:00:00,
2013-02-20 09:05:00,49.5,36.6,29.71,SE,125,7.0,12.0,61,0.00,,,0.07,Wunderground v.1.15,2013-02-20 16:05:00,
2013-02-20 09:10:00,50.1,37.2,29.71,SW,224,7.0,10.0,61,0.00,,,0.07,Wunderground v.1.15,2013-02-20 16:10:00,
2013-02-20 09:15:00,50.4,37.0,29.71,WSW,243,3.0,12.0,60,0.00,,,0.07,Wunderground v.1.15,2013-02-20 16:15:00,
2013-02-20 09:20:00,50.6,36.8,29.71,SSW,201,7.0,10.0,59,0.00,,,0.07,Wunderground v.1.15,2013-02-20 16:20:00,
2013-02-20 09:25:00,50.7,37.3,29.71,SE,124,1.0,10.0,60,0.00,,,0.07,Wunderground v.1.15,2013-02-20 16:25:00,
2013-02-20 09:30:00,50.9,37.5,29.71,WSW,249,7.0,9.0,60,0.00,,,0.07,Wunderground v.1.15,2013-02-20 16:30:00,
2013-02-20 09:35:00,50.8,39.5,29.72,SW,236,6.0,14.0,65,0.00,,,0.07,Wunderground v.1.15,2013-02-20 16:35:00,
2013-02-20 09:40:00,49.8,39.3,29.72,WNW,301,6.0,10.0,67,0.00,,,0.07,Wunderground v.1.15,2013-02-20 16:40:00,
2013-02-20 09:45:00,49.3,38.8,29.72,NW,319,5.0,12.0,67,0.00,,,0.07,Wunderground v.1.15,2013-02-20 16:45:00,
2013-02-20 09:50:00,48.9,38.0,29.72,WSW,256,6.0,9.0,66,0.00,,,0.07,Wunderground v.1.15,2013-02-20 16:50:00,
2013-02-20 09:55:00,49.0,38.9,29.72,WNW,283,8.0,12.0,68,0.00,,,0.07,Wunderground v.1.15,2013-02-20 16:55:00,
2013-02-20 10:00:00,48.9,39.5,29.72,NW,304,7.0,10.0,70,0.00,,,0.07,Wunderground v.1.15,2013-02-20 17:00:00,
2013-02-20 10:05:00,49.0,40.7,29.72,NW,308,8.0,10.0,73,0.00,,,0.07,Wunderground v.1.15,2013-02-20 17:05:00,
2013-02-20 10:10:00,49.0,39.6,29.72,West,274,4.0,7.0,70,0.00,,,0.07,Wunderground v.1.15,2013-02-20 17:10:00,
2013-02-20 10:15:00,48.9,39.2,29.73,NNW,335,2.0,9.0,69,0.00,,,0.07,Wunderground v.1.15,2013-02-20 17:15:00,
2013-02-20 10:20:00,48.8,40.5,29.73,NNW,340,5.0,11.0,73,0.00,,,0.07,Wunderground v.1.15,2013-02-20 17:20:00,
2013-02-20 10:25:00,48.5,39.5,29.73,North,5,4.0,11.0,71,0.00,,,0.07,Wunderground v.1.15,2013-02-20 17:25:00,
2013-02-20 10:30:00,48.4,38.7,29.73,NNW,340,0.0,4.0,69,0.00,,,0.07,Wunderground v.1.15,2013-02-20 17:30:00,
2013-02-20 10:35:00,49.1,39.0,29.73,NNW,344,7.0,10.0,68,0.00,,,0.07,Wunderground v.1.15,2013-02-20 17:35:00,
2013-02-20 10:40:00,49.1,38.6,29.73,North,6,2.0,5.0,67,0.00,,,0.07,Wunderground v.1.15,2013-02-20 17:40:00,
2013-02-20 10:45:00,49.8,38.9,29.73,North,360,6.0,8.0,66,0.00,,,0.07,Wunderground v.1.15,2013-02-20 17:45:00,
2013-02-20 10:50:00,50.1,39.6,29.73,NNW,327,3.0,6.0,67,0.00,,,0.07,Wunderground v.1.15,2013-02-20 17:50:00,
2013-02-20 10:55:00,50.4,38.7,29.74,WNW,287,0.0,6.0,64,0.00,,,0.07,Wunderground v.1.15,2013-02-20 17:55:00,
2013-02-20 11:00:00,51.0,38.0,29.73,NNW,330,0.0,2.0,61,0.00,,,0.07,Wunderground v.1.15,2013-02-20 18:00:00,
2013-02-20 11:06:00,51.2,37.8,29.74,NNW,339,3.0,9.0,60,0.00,,,0.07,Wunderground v.1.15,2013-02-20 18:06:00,
2013-02-20 11:11:00,51.0,37.2,29.74,West,281,3.0,3.0,59,0.00,,,0.07,Wunderground v.1.15,2013-02-20 18:11:00,
2013-02-20 11:16:00,51.3,37.9,29.74,West,274,2.0,6.0,60,0.00,,,0.07,Wunderground v.1.15,2013-02-20 18:16:00,
2013-02-20 11:21:00,52.1,37.3,29.74,NW,307,2.0,2.0,57,0.00,,,0.07,Wunderground v.1.15,2013-02-20 18:21:00,
2013-02-20 11:26:00,51.5,36.8,29.74,WNW,285,2.0,6.0,57,0.00,,,0.07,Wunderground v.1.15,2013-02-20 18:26:00,
2013-02-20 11:31:00,50.8,37.0,29.74,WNW,302,5.0,5.0,59,0.00,,,0.07,Wunderground v.1.15,2013-02-20 18:31:00,
2013-02-20 11:36:00,49.6,37.1,29.74,NW,325,7.0,11.0,62,0.00,,,0.08,Wunderground v.1.15,2013-02-20 18:36:00,
2013-02-20 11:40:00,48.4,35.6,29.74,WSW,241,1.0,6.0,61,0.19,,,0.10,Wunderground v.1.15,2013-02-20 18:40:00,
2013-02-20 11:45:00,47.6,36.0,29.74,South,181,1.0,6.0,64,0.17,,,0.11,Wunderground v.1.15,2013-02-20 18:45:00,
2013-02-20 11:50:00,46.8,37.9,29.74,SSW,208,1.0,1.0,71,0.09,,,0.12,Wunderground v.1.15,2013-02-20 18:50:00,
2013-02-20 11:55:00,45.5,37.3,29.74,ENE,73,0.0,2.0,73,0.13,,,0.13,Wunderground v.1.15,2013-02-20 18:55:00,
2013-02-20 12:00:00,45.3,35.0,29.74,East,99,3.0,3.0,67,0.12,,,0.14,Wunderground v.1.15,2013-02-20 19:00:00,
2013-02-20 12:05:00,45.6,37.4,29.75,SE,131,1.0,3.0,73,0.06,,,0.14,Wunderground v.1.15,2013-02-20 19:05:00,
2013-02-20 12:10:00,45.9,38.1,29.75,ESE,121,0.0,1.0,74,0.04,,,0.15,Wunderground v.1.15,2013-02-20 19:10:00,
2013-02-20 12:15:00,47.6,38.7,29.74,ENE,59,1.0,2.0,71,0.04,,,0.15,Wunderground v.1.15,2013-02-20 19:15:00,
2013-02-20 12:20:00,49.1,39.7,29.74,East,94,1.0,3.0,70,0.04,,,0.15,Wunderground v.1.15,2013-02-20 19:20:00,
2013-02-20 12:25:00,49.9,38.2,29.74,ESE,110,2.0,3.0,64,0.04,,,0.16,Wunderground v.1.15,2013-02-20 19:25:00,
2013-02-20 12:31:00,50.3,37.4,29.74,ESE,105,0.0,1.0,61,0.04,,,0.16,Wunderground v.1.15,2013-02-20 19:31:00,
2013-02-20 12:36:00,50.4,38.3,29.74,ESE,106,1.0,1.0,63,0.04,,,0.16,Wunderground v.1.15,2013-02-20 19:36:00,
2013-02-20 12:41:00,50.3,37.4,29.74,SE,131,1.0,2.0,61,0.00,,,0.16,Wunderground v.1.15,2013-02-20 19:41:00,
2013-02-20 12:46:00,50.2,37.3,29.74,ESE,106,0.0,2.0,61,0.00,,,0.16,Wunderground v.1.15,2013-02-20 19:46:00,
2013-02-20 12:51:00,50.6,39.3,29.74,ESE,121,0.0,1.0,65,0.00,,,0.16,Wunderground v.1.15,2013-02-20 19:51:00,
2013-02-20 12:56:00,50.8,36.5,29.74,ESE,114,1.0,1.0,58,0.00,,,0.16,Wunderground v.1.15,2013-02-20 19:56:00,
2013-02-20 13:01:00,51.0,36.3,29.74,ESE,117,0.0,2.0,57,0.00,,,0.16,Wunderground v.1.15,2013-02-20 20:01:00,
2013-02-20 13:06:00,51.2,35.6,29.74,ESE,122,0.0,2.0,55,0.00,,,0.16,Wunderground v.1.15,2013-02-20 20:06:00,
2013-02-20 13:11:00,51.1,34.1,29.74,WNW,300,3.0,4.0,52,0.00,,,0.16,Wunderground v.1.15,2013-02-20 20:11:00,
2013-02-20 13:16:00,51.2,35.6,29.74,WNW,283,7.0,12.0,55,0.00,,,0.16,Wunderground v.1.15,2013-02-20 20:16:00,
2013-02-20 13:21:00,51.8,33.2,29.75,WNW,297,7.0,9.0,49,0.00,,,0.16,Wunderground v.1.15,2013-02-20 20:21:00,
2013-02-20 13:26:00,52.0,31.3,29.75,NW,311,9.0,11.0,45,0.00,,,0.16,Wunderground v.1.15,2013-02-20 20:26:00,
2013-02-20 13:31:00,52.0,33.4,29.74,WNW,298,11.0,11.0,49,0.00,,,0.16,Wunderground v.1.15,2013-02-20 20:31:00,
2013-02-20 13:36:00,52.0,33.4,29.74,WSW,253,7.0,13.0,49,0.00,,,0.16,Wunderground v.1.15,2013-02-20 20:36:00,
2013-02-20 13:41:00,52.0,32.9,29.75,West,262,10.0,15.0,48,0.00,,,0.16,Wunderground v.1.15,2013-02-20 20:41:00,
2013-02-20 13:46:00,51.8,32.7,29.75,WNW,288,14.0,19.0,48,0.00,,,0.16,Wunderground v.1.15,2013-02-20 20:46:00,
2013-02-20 13:51:00,51.8,33.2,29.75,NNW,340,10.0,15.0,49,0.00,,,0.16,Wunderground v.1.15,2013-02-20 20:51:00,
2013-02-20 13:56:00,51.8,33.7,29.75,NW,320,8.0,15.0,50,0.00,,,0.16,Wunderground v.1.15,2013-02-20 20:56:00,
2013-02-20 14:01:00,51.8,33.2,29.75,WNW,285,9.0,12.0,49,0.00,,,0.16,Wunderground v.1.15,2013-02-20 21:01:00,
2013-02-20 14:06:00,52.0,32.9,29.75,NW,323,8.0,13.0,48,0.00,,,0.16,Wunderground v.1.15,2013-02-20 21:06:00,
2013-02-20 14:11:00,51.9,33.3,29.75,NW,307,8.0,13.0,49,0.00,,,0.16,Wunderground v.1.15,2013-02-20 21:11:00,
2013-02-20 14:16:00,51.9,33.3,29.75,West,280,10.0,14.0,49,0.00,,,0.16,Wunderground v.1.15,2013-02-20 21:16:00,
2013-02-20 14:21:00,52.1,34.5,29.76,West,273,9.0,14.0,51,0.00,,,0.16,Wunderground v.1.15,2013-02-20 21:21:00,
2013-02-20 14:26:00,52.3,35.7,29.76,WNW,293,10.0,14.0,53,0.00,,,0.16,Wunderground v.1.15,2013-02-20 21:26:00,
2013-02-20 14:31:00,52.4,35.3,29.76,WNW,297,12.0,15.0,52,0.00,,,0.16,Wunderground v.1.15,2013-02-20 21:31:00,
2013-02-20 14:36:00,52.1,33.0,29.76,WNW,297,13.0,16.0,48,0.00,,,0.16,Wunderground v.1.15,2013-02-20 21:36:00,
2013-02-20 14:41:00,52.2,35.6,29.77,WNW,297,6.0,14.0,53,0.00,,,0.16,Wunderground v.1.15,2013-02-20 21:41:00,
2013-02-20 14:46:00,51.9,31.7,29.77,WNW,290,9.0,16.0,46,0.00,,,0.16,Wunderground v.1.15,2013-02-20 21:46:00,
2013-02-20 14:51:00,51.8,34.7,29.77,West,273,13.0,13.0,52,0.00,,,0.16,Wunderground v.1.15,2013-02-20 21:51:00,
2013-02-20 14:56:00,51.6,34.0,29.77,WSW,239,10.0,14.0,51,0.00,,,0.16,Wunderground v.1.15,2013-02-20 21:56:00,
2013-02-20 15:01:00,51.5,34.9,29.77,WNW,283,11.0,12.0,53,0.00,,,0.16,Wunderground v.1.15,2013-02-20 22:01:00,
2013-02-20 15:06:00,51.5,35.4,29.78,West,267,6.0,12.0,54,0.00,,,0.16,Wunderground v.1.15,2013-02-20 22:06:00,
2013-02-20 15:11:00,51.3,34.7,29.78,West,270,10.0,12.0,53,0.00,,,0.16,Wunderground v.1.15,2013-02-20 22:11:00,
2013-02-20 15:16:00,51.1,34.1,29.78,West,278,7.0,12.0,52,0.00,,,0.16,Wunderground v.1.15,2013-02-20 22:16:00,
2013-02-20 15:21:00,51.0,34.5,29.78,West,280,5.0,7.0,53,0.00,,,0.16,Wunderground v.1.15,2013-02-20 22:21:00,
2013-02-20 15:26:00,51.0,35.8,29.78,West,276,11.0,12.0,56,0.00,,,0.16,Wunderground v.1.15,2013-02-20 22:26:00,
2013-02-20 15:31:00,50.5,35.8,29.78,NNW,336,6.0,8.0,57,0.00,,,0.16,Wunderground v.1.15,2013-02-20 22:31:00,
2013-02-20 15:36:00,50.4,35.7,29.78,NNE,18,6.0,8.0,57,0.00,,,0.16,Wunderground v.1.15,2013-02-20 22:36:00,
2013-02-20 15:41:00,50.5,36.3,29.78,NNW,342,3.0,6.0,58,0.00,,,0.16,Wunderground v.1.15,2013-02-20 22:41:00,
2013-02-20 15:46:00,50.9,37.1,29.78,NE,46,1.0,7.0,59,0.00,,,0.16,Wunderground v.1.15,2013-02-20 22:46:00,
2013-02-20 15:51:00,51.6,37.7,29.78,NNW,344,0.0,3.0,59,0.00,,,0.16,Wunderground v.1.15,2013-02-20 22:51:00,
2013-02-20 15:56:00,52.8,37.1,29.78,NNE,20,0.0,4.0,55,0.00,,,0.16,Wunderground v.1.15,2013-02-20 22:56:00,
2013-02-20 16:01:00,53.0,36.3,29.79,ENE,70,0.0,3.0,53,0.00,,,0.16,Wunderground v.1.15,2013-02-20 23:01:00,
2013-02-20 16:06:00,52.6,35.9,29.79,ENE,70,0.0,4.0,53,0.00,,,0.16,Wunderground v.1.15,2013-02-20 23:06:00,
2013-02-20 16:11:00,53.1,36.4,29.79,ENE,70,0.0,2.0,53,0.00,,,0.16,Wunderground v.1.15,2013-02-20 23:11:00,
2013-02-20 16:16:00,53.0,36.3,29.79,East,81,0.0,4.0,53,0.00,,,0.16,Wunderground v.1.15,2013-02-20 23:16:00,
2013-02-20 16:21:00,52.9,35.7,29.79,ESE,105,3.0,3.0,52,0.00,,,0.16,Wunderground v.1.15,2013-02-20 23:21:00,
2013-02-20 16:26:00,52.6,35.0,29.79,ESE,109,2.0,3.0,51,0.00,,,0.16,Wunderground v.1.15,2013-02-20 23:26:00,
2013-02-20 16:31:00,52.5,36.3,29.80,East,91,0.0,1.0,54,0.00,,,0.16,Wunderground v.1.15,2013-02-20 23:31:00,
2013-02-20 16:36:00,52.4,36.2,29.80,North,5,0.0,2.0,54,0.00,,,0.16,Wunderground v.1.15,2013-02-20 23:36:00,
2013-02-20 16:41:00,52.8,36.1,29.80,ENE,60,0.0,1.0,53,0.00,,,0.16,Wunderground v.1.15,2013-02-20 23:41:00,
2013-02-20 16:46:00,53.0,35.3,29.80,East,94,1.0,1.0,51,0.00,,,0.16,Wunderground v.1.15,2013-02-20 23:46:00,
2013-02-20 16:51:00,53.4,35.2,29.80,East,96,2.0,3.0,50,0.00,,,0.16,Wunderground v.1.15,2013-02-20 23:51:00,
2013-02-20 16:57:00,53.9,36.7,29.79,ESE,115,1.0,3.0,52,0.00,,,0.16,Wunderground v.1.15,2013-02-20 23:57:00,
2013-02-20 17:02:00,54.2,35.9,29.79,ENE,72,0.0,2.0,50,0.00,,,0.16,Wunderground v.1.15,2013-02-21 00:02:00,
2013-02-20 17:07:00,54.5,35.2,29.79,East,96,0.0,3.0,48,0.00,,,0.16,Wunderground v.1.15,2013-02-21 00:07:00,
2013-02-20 17:12:00,54.4,35.1,29.79,East,91,1.0,4.0,48,0.00,,,0.16,Wunderground v.1.15,2013-02-21 00:12:00,
2013-02-20 17:17:00,54.3,35.0,29.79,ESE,105,1.0,4.0,48,0.00,,,0.16,Wunderground v.1.15,2013-02-21 00:17:00,
2013-02-20 17:22:00,54.5,36.2,29.80,East,95,0.0,2.0,50,0.00,,,0.16,Wunderground v.1.15,2013-02-21 00:22:00,
2013-02-20 17:27:00,55.3,36.5,29.80,ENE,63,0.0,2.0,49,0.00,,,0.16,Wunderground v.1.15,2013-02-21 00:27:00,
2013-02-20 17:32:00,55.8,35.9,29.80,North,354,0.0,2.0,47,0.00,,,0.16,Wunderground v.1.15,2013-02-21 00:32:00,
2013-02-20 17:37:00,55.5,36.1,29.80,NNE,29,0.0,2.0,48,0.00,,,0.16,Wunderground v.1.15,2013-02-21 00:37:00,
2013-02-20 17:42:00,54.5,35.7,29.80,ESE,113,2.0,3.0,49,0.00,,,0.16,Wunderground v.1.15,2013-02-21 00:42:00,
2013-02-20 17:47:00,53.9,36.7,29.80,East,79,1.0,3.0,52,0.00,,,0.16,Wunderground v.1.15,2013-02-21 00:47:00,
2013-02-20 17:52:00,53.6,35.4,29.80,ENE,58,0.0,4.0,50,0.00,,,0.16,Wunderground v.1.15,2013-02-21 00:52:00,
2013-02-20 17:57:00,53.6,36.4,29.81,ENE,67,2.0,4.0,52,0.00,,,0.16,Wunderground v.1.15,2013-02-21 00:57:00,
2013-02-20 18:02:00,53.3,36.6,29.81,ENE,73,0.0,3.0,53,0.00,,,0.16,Wunderground v.1.15,2013-02-21 01:02:00,
2013-02-20 18:07:00,53.2,36.5,29.81,ENE,74,0.0,3.0,53,0.00,,,0.16,Wunderground v.1.15,2013-02-21 01:07:00,
2013-02-20 18:12:00,53.2,37.0,29.81,ENE,74,0.0,1.0,54,0.00,,,0.16,Wunderground v.1.15,2013-02-21 01:12:00,
2013-02-20 18:17:00,52.6,36.4,29.82,East,88,0.0,1.0,54,0.00,,,0.16,Wunderground v.1.15,2013-02-21 01:17:00,
2013-02-20 18:22:00,51.9,36.7,29.82,ENE,78,0.0,1.0,56,0.00,,,0.16,Wunderground v.1.15,2013-02-21 01:22:00,
2013-02-20 18:28:00,51.3,36.6,29.82,East,87,0.0,1.0,57,0.00,,,0.16,Wunderground v.1.15,2013-02-21 01:28:00,
2013-02-20 18:33:00,51.0,36.7,29.83,East,97,0.0,1.0,58,0.00,,,0.16,Wunderground v.1.15,2013-02-21 01:33:00,
2013-02-20 18:38:00,50.6,38.1,29.83,East,98,0.0,1.0,62,0.00,,,0.16,Wunderground v.1.15,2013-02-21 01:38:00,
2013-02-20 18:43:00,50.3,38.2,29.83,East,98,0.0,0.0,63,0.00,,,0.16,Wunderground v.1.15,2013-02-21 01:43:00,
2013-02-20 18:48:00,49.9,37.8,29.83,ESE,116,1.0,1.0,63,0.00,,,0.16,Wunderground v.1.15,2013-02-21 01:48:00,
2013-02-20 18:53:00,49.8,38.9,29.83,ESE,107,0.0,2.0,66,0.00,,,0.16,Wunderground v.1.15,2013-02-21 01:53:00,
2013-02-20 18:58:00,49.6,37.5,29.83,East,84,1.0,2.0,63,0.00,,,0.16,Wunderground v.1.15,2013-02-21 01:58:00,
2013-02-20 19:03:00,49.8,37.3,29.84,ESE,108,0.0,1.0,62,0.00,,,0.16,Wunderground v.1.15,2013-02-21 02:03:00,
2013-02-20 19:08:00,49.5,38.6,29.84,South,170,0.0,1.0,66,0.00,,,0.16,Wunderground v.1.15,2013-02-21 02:08:00,
2013-02-20 19:13:00,48.9,39.5,29.84,SSW,193,1.0,1.0,70,0.00,,,0.16,Wunderground v.1.15,2013-02-21 02:13:00,
2013-02-20 19:18:00,48.4,38.7,29.84,ESE,113,0.0,2.0,69,0.00,,,0.16,Wunderground v.1.15,2013-02-21 02:18:00,
2013-02-20 19:23:00,48.6,38.5,29.84,ESE,115,0.0,1.0,68,0.00,,,0.16,Wunderground v.1.15,2013-02-21 02:23:00,
2013-02-20 19:28:00,48.4,38.7,29.85,ESE,117,0.0,1.0,69,0.00,,,0.16,Wunderground v.1.15,2013-02-21 02:28:00,
2013-02-20 19:33:00,48.2,39.2,29.85,ESE,115,0.0,0.0,71,0.00,,,0.16,Wunderground v.1.15,2013-02-21 02:33:00,
2013-02-20 19:38:00,48.1,39.5,29.85,ESE,115,0.0,1.0,72,0.00,,,0.16,Wunderground v.1.15,2013-02-21 02:38:00,
2013-02-20 19:43:00,47.9,39.7,29.85,ESE,115,0.0,0.0,73,0.00,,,0.16,Wunderground v.1.15,2013-02-21 02:43:00,
2013-02-20 19:48:00,47.7,39.5,29.85,ESE,116,0.0,0.0,73,0.00,,,0.16,Wunderground v.1.15,2013-02-21 02:48:00,
2013-02-20 19:53:00,47.6,39.4,29.86,ESE,115,0.0,0.0,73,0.00,,,0.16,Wunderground v.1.15,2013-02-21 02:53:00,
2013-02-20 19:58:00,47.6,39.7,29.86,East,94,0.0,1.0,74,0.00,,,0.16,Wunderground v.1.15,2013-02-21 02:58:00,
2013-02-20 20:03:00,47.6,39.4,29.86,ESE,113,0.0,1.0,73,0.00,,,0.16,Wunderground v.1.15,2013-02-21 03:03:00,
2013-02-20 20:08:00,47.2,39.3,29.86,ESE,113,0.0,1.0,74,0.00,,,0.16,Wunderground v.1.15,2013-02-21 03:08:00,
2013-02-20 20:13:00,47.0,39.5,29.86,ESE,111,0.0,1.0,75,0.00,,,0.16,Wunderground v.1.15,2013-02-21 03:13:00,
2013-02-20 20:18:00,46.9,39.4,29.86,ESE,105,0.0,1.0,75,0.00,,,0.16,Wunderground v.1.15,2013-02-21 03:18:00,
2013-02-20 20:23:00,46.8,39.6,29.86,East,90,0.0,1.0,76,0.00,,,0.16,Wunderground v.1.15,2013-02-21 03:23:00,
2013-02-20 20:28:00,46.8,39.3,29.86,ESE,109,0.0,1.0,75,0.00,,,0.16,Wunderground v.1.15,2013-02-21 03:28:00,
2013-02-20 20:33:00,46.9,39.0,29.86,East,98,0.0,1.0,74,0.00,,,0.16,Wunderground v.1.15,2013-02-21 03:33:00,
2013-02-20 20:38:00,46.9,38.7,29.87,East,96,1.0,1.0,73,0.00,,,0.16,Wunderground v.1.15,2013-02-21 03:38:00,
2013-02-20 20:43:00,46.9,38.7,29.87,ESE,111,0.0,1.0,73,0.00,,,0.16,Wunderground v.1.15,2013-02-21 03:43:00,
2013-02-20 20:48:00,46.8,38.6,29.87,ESE,109,0.0,1.0,73,0.00,,,0.16,Wunderground v.1.15,2013-02-21 03:48:00,
2013-02-20 20:54:00,46.6,39.1,29.87,ESE,108,0.0,1.0,75,0.00,,,0.16,Wunderground v.1.15,2013-02-21 03:54:00,
2013-02-20 20:59:00,46.1,39.3,29.87,ESE,115,0.0,1.0,77,0.00,,,0.16,Wunderground v.1.15,2013-02-21 03:59:00,
2013-02-20 21:04:00,45.9,39.1,29.88,SE,125,1.0,3.0,77,0.00,,,0.16,Wunderground v.1.15,2013-02-21 04:04:00,
2013-02-20 21:09:00,46.2,39.4,29.88,SE,129,1.0,3.0,77,0.00,,,0.16,Wunderground v.1.15,2013-02-21 04:09:00,
2013-02-20 21:14:00,46.3,39.5,29.88,ESE,123,1.0,2.0,77,0.00,,,0.16,Wunderground v.1.15,2013-02-21 04:14:00,
2013-02-20 21:19:00,46.4,39.6,29.88,ESE,118,1.0,2.0,77,0.00,,,0.16,Wunderground v.1.15,2013-02-21 04:19:00,
2013-02-20 21:24:00,46.3,39.1,29.88,ESE,122,2.0,2.0,76,0.00,,,0.16,Wunderground v.1.15,2013-02-21 04:24:00,
2013-02-20 21:29:00,46.5,39.0,29.88,ESE,110,2.0,4.0,75,0.00,,,0.16,Wunderground v.1.15,2013-02-21 04:29:00,
2013-02-20 21:34:00,46.8,38.6,29.88,East,101,1.0,2.0,73,0.00,,,0.16,Wunderground v.1.15,2013-02-21 04:34:00,
2013-02-20 21:39:00,47.0,38.1,29.88,ESE,111,2.0,2.0,71,0.00,,,0.16,Wunderground v.1.15,2013-02-21 04:39:00,
2013-02-20 21:44:00,47.0,37.7,29.88,SE,134,1.0,2.0,70,0.00,,,0.16,Wunderground v.1.15,2013-02-21 04:44:00,
2013-02-20 21:49:00,47.1,37.4,29.88,ESE,112,0.0,2.0,69,0.00,,,0.16,Wunderground v.1.15,2013-02-21 04:49:00,
2013-02-20 21:54:00,47.1,37.4,29.89,ESE,122,0.0,2.0,69,0.00,,,0.16,Wunderground v.1.15,2013-02-21 04:54:00,
2013-02-20 22:00:00,47.2,37.2,29.89,ESE,102,1.0,3.0,68,0.00,,,0.16,Wunderground v.1.15,2013-02-21 05:00:00,
2013-02-20 22:05:00,47.2,37.2,29.89,ESE,110,0.0,1.0,68,0.00,,,0.16,Wunderground v.1.15,2013-02-21 05:05:00,
2013-02-20 22:10:00,46.9,37.3,29.89,ESE,110,0.0,0.0,69,0.00,,,0.16,Wunderground v.1.15,2013-02-21 05:10:00,
2013-02-20 22:15:00,46.1,37.2,29.89,ESE,110,0.0,0.0,71,0.00,,,0.16,Wunderground v.1.15,2013-02-21 05:15:00,
2013-02-20 22:20:00,45.4,37.2,29.89,ESE,110,0.0,0.0,73,0.00,,,0.16,Wunderground v.1.15,2013-02-21 05:20:00,
2013-02-20 22:25:00,44.9,37.1,29.89,ESE,110,0.0,0.0,74,0.00,,,0.16,Wunderground v.1.15,2013-02-21 05:25:00,
2013-02-20 22:30:00,44.7,37.3,29.89,ESE,110,0.0,0.0,75,0.00,,,0.16,Wunderground v.1.15,2013-02-21 05:30:00,
2013-02-20 22:35:00,44.4,37.0,29.90,ESE,110,0.0,0.0,75,0.00,,,0.16,Wunderground v.1.15,2013-02-21 05:35:00,
2013-02-20 22:40:00,43.8,37.1,29.90,WNW,289,0.0,1.0,77,0.00,,,0.16,Wunderground v.1.15,2013-02-21 05:40:00,
2013-02-20 22:45:00,43.2,37.1,29.90,WNW,290,0.0,1.0,79,0.00,,,0.16,Wunderground v.1.15,2013-02-21 05:45:00,
2013-02-20 22:50:00,43.2,37.1,29.91,WNW,289,0.0,0.0,79,0.00,,,0.16,Wunderground v.1.15,2013-02-21 05:50:00,
2013-02-20 22:55:00,43.5,36.8,29.91,West,269,1.0,1.0,77,0.00,,,0.16,Wunderground v.1.15,2013-02-21 05:55:00,
2013-02-20 23:00:00,43.7,36.6,29.90,West,269,0.0,0.0,76,0.00,,,0.16,Wunderground v.1.15,2013-02-21 06:00:00,
2013-02-20 23:05:00,44.0,36.6,29.90,West,268,0.0,1.0,75,0.00,,,0.16,Wunderground v.1.15,2013-02-21 06:05:00,
2013-02-20 23:10:00,43.9,36.8,29.90,West,271,0.0,0.0,76,0.00,,,0.16,Wunderground v.1.15,2013-02-21 06:10:00,
2013-02-20 23:15:00,43.2,36.5,29.90,NNE,29,0.0,2.0,77,0.00,,,0.16,Wunderground v.1.15,2013-02-21 06:15:00,
2013-02-20 23:20:00,42.7,36.0,29.91,NNE,27,1.0,1.0,77,0.00,,,0.16,Wunderground v.1.15,2013-02-21 06:20:00,
2013-02-20 23:25:00,42.3,35.6,29.91,North,357,2.0,2.0,77,0.00,,,0.16,Wunderground v.1.15,2013-02-21 06:25:00,
2013-02-20 23:30:00,40.9,34.6,29.91,NNE,19,0.0,1.0,78,0.00,,,0.16,Wunderground v.1.15,2013-02-21 06:30:00,
2013-02-20 23:35:00,40.4,35.0,29.91,NE,36,0.0,1.0,81,0.00,,,0.16,Wunderground v.1.15,2013-02-21 06:35:00,
2013-02-20 23:40:00,40.3,34.9,29.91,NNE,32,0.0,0.0,81,0.00,,,0.16,Wunderground v.1.15,2013-02-21 06:40:00,
2013-02-20 23:45:00,40.2,35.4,29.91,NE,37,0.0,1.0,83,0.00,,,0.16,Wunderground v.1.15,2013-02-21 06:45:00,
2013-02-20 23:50:00,40.7,35.6,29.91,NE,37,0.0,0.0,82,0.00,,,0.16,Wunderground v.1.15,2013-02-21 06:50:00,
2013-02-20 23:55:00,39.9,34.9,29.91,North,359,0.0,1.0,82,0.00,,,0.16,Wunderground v.1.15,2013-02-21 06:55:00,